sensor_id;sensor_type;location;lat;lon;timestamp;P1;durP1;ratioP1;P2;durP2;ratioP2
26034;SDS011;13809;48.632;11.576;2024-03-06T00:03:44;10.87;;;9.83;;
26034;SDS011;13809;48.632;11.576;2024-03-06T00:08:47;11.67;;;10.53;;
26034;SDS011;13809;48.632;11.576;2024-03-06T00:13:52;11.30;;;10.27;;
26034;SDS011;13809;48.632;11.576;2024-03-06T00:18:55;11.90;;;10.80;;
26034;SDS011;13809;48.632;11.576;2024-03-06T00:23:58;12.83;;;11.63;;
26034;SDS011;13809;48.632;11.576;2024-03-06T00:29:02;12.47;;;11.27;;
26034;SDS011;13809;48.632;11.576;2024-03-06T00:34:07;12.47;;;11.17;;
26034;SDS011;13809;48.632;11.576;2024-03-06T00:39:10;13.10;;;11.80;;
26034;SDS011;13809;48.632;11.576;2024-03-06T00:44:17;13.30;;;11.80;;
26034;SDS011;13809;48.632;11.576;2024-03-06T00:49:20;13.50;;;12.20;;
26034;SDS011;13809;48.632;11.576;2024-03-06T00:54:23;13.57;;;12.23;;
26034;SDS011;13809;48.632;11.576;2024-03-06T00:59:28;14.53;;;12.53;;
26034;SDS011;13809;48.632;11.576;2024-03-06T01:04:31;15.20;;;13.63;;
26034;SDS011;13809;48.632;11.576;2024-03-06T01:09:34;13.80;;;12.40;;
26034;SDS011;13809;48.632;11.576;2024-03-06T01:14:39;15.43;;;13.60;;
26034;SDS011;13809;48.632;11.576;2024-03-06T01:19:42;14.83;;;13.30;;
26034;SDS011;13809;48.632;11.576;2024-03-06T01:24:46;15.80;;;14.10;;
26034;SDS011;13809;48.632;11.576;2024-03-06T01:29:51;15.03;;;13.50;;
26034;SDS011;13809;48.632;11.576;2024-03-06T01:34:55;15.43;;;13.83;;
26034;SDS011;13809;48.632;11.576;2024-03-06T01:39:58;15.60;;;13.90;;
26034;SDS011;13809;48.632;11.576;2024-03-06T01:45:03;15.87;;;14.07;;
26034;SDS011;13809;48.632;11.576;2024-03-06T01:50:07;15.47;;;13.87;;
26034;SDS011;13809;48.632;11.576;2024-03-06T01:55:12;15.90;;;14.23;;
26034;SDS011;13809;48.632;11.576;2024-03-06T02:00:18;15.57;;;13.97;;
26034;SDS011;13809;48.632;11.576;2024-03-06T02:05:22;16.33;;;14.50;;
26034;SDS011;13809;48.632;11.576;2024-03-06T02:10:25;16.50;;;14.80;;
26034;SDS011;13809;48.632;11.576;2024-03-06T02:15:30;14.83;;;13.33;;
26034;SDS011;13809;48.632;11.576;2024-03-06T02:20:35;15.53;;;13.93;;
26034;SDS011;13809;48.632;11.576;2024-03-06T02:25:41;15.97;;;14.33;;
26034;SDS011;13809;48.632;11.576;2024-03-06T02:30:44;15.13;;;13.53;;
26034;SDS011;13809;48.632;11.576;2024-03-06T02:35:53;16.83;;;15.03;;
26034;SDS011;13809;48.632;11.576;2024-03-06T02:40:56;16.13;;;14.43;;
26034;SDS011;13809;48.632;11.576;2024-03-06T02:45:59;15.53;;;13.77;;
26034;SDS011;13809;48.632;11.576;2024-03-06T02:51:04;16.70;;;14.87;;
26034;SDS011;13809;48.632;11.576;2024-03-06T02:56:07;17.20;;;14.93;;
26034;SDS011;13809;48.632;11.576;2024-03-06T03:01:11;16.77;;;14.97;;
26034;SDS011;13809;48.632;11.576;2024-03-06T03:06:15;16.60;;;14.80;;
26034;SDS011;13809;48.632;11.576;2024-03-06T03:11:19;16.17;;;14.43;;
26034;SDS011;13809;48.632;11.576;2024-03-06T03:16:22;16.60;;;14.80;;
26034;SDS011;13809;48.632;11.576;2024-03-06T03:21:27;16.40;;;14.03;;
26034;SDS011;13809;48.632;11.576;2024-03-06T03:26:30;16.20;;;14.50;;
26034;SDS011;13809;48.632;11.576;2024-03-06T03:31:33;15.83;;;13.90;;
26034;SDS011;13809;48.632;11.576;2024-03-06T03:36:41;13.73;;;12.33;;
26034;SDS011;13809;48.632;11.576;2024-03-06T03:41:44;15.87;;;14.17;;
26034;SDS011;13809;48.632;11.576;2024-03-06T03:46:48;15.53;;;13.83;;
26034;SDS011;13809;48.632;11.576;2024-03-06T03:51:52;14.93;;;13.40;;
26034;SDS011;13809;48.632;11.576;2024-03-06T03:56:55;15.70;;;14.03;;
26034;SDS011;13809;48.632;11.576;2024-03-06T04:02:00;15.90;;;14.07;;
26034;SDS011;13809;48.632;11.576;2024-03-06T04:07:05;16.27;;;14.57;;
26034;SDS011;13809;48.632;11.576;2024-03-06T04:12:08;15.90;;;14.20;;
26034;SDS011;13809;48.632;11.576;2024-03-06T04:17:12;15.90;;;14.00;;
26034;SDS011;13809;48.632;11.576;2024-03-06T04:22:19;16.27;;;14.13;;
26034;SDS011;13809;48.632;11.576;2024-03-06T04:27:23;15.67;;;14.00;;
26034;SDS011;13809;48.632;11.576;2024-03-06T04:32:27;17.13;;;14.50;;
26034;SDS011;13809;48.632;11.576;2024-03-06T04:37:32;17.20;;;14.83;;
26034;SDS011;13809;48.632;11.576;2024-03-06T04:42:35;16.97;;;15.17;;
26034;SDS011;13809;48.632;11.576;2024-03-06T04:47:38;15.73;;;14.07;;
26034;SDS011;13809;48.632;11.576;2024-03-06T04:52:43;17.50;;;15.03;;
26034;SDS011;13809;48.632;11.576;2024-03-06T04:57:47;15.60;;;14.00;;
26034;SDS011;13809;48.632;11.576;2024-03-06T05:02:51;16.27;;;14.67;;
26034;SDS011;13809;48.632;11.576;2024-03-06T05:08:14;16.70;;;14.83;;
26034;SDS011;13809;48.632;11.576;2024-03-06T05:13:35;16.00;;;14.30;;
26034;SDS011;13809;48.632;11.576;2024-03-06T05:18:55;16.67;;;14.47;;
26034;SDS011;13809;48.632;11.576;2024-03-06T05:24:17;17.17;;;14.73;;
26034;SDS011;13809;48.632;11.576;2024-03-06T05:29:37;16.10;;;14.03;;
26034;SDS011;13809;48.632;11.576;2024-03-06T05:34:58;17.23;;;15.33;;
26034;SDS011;13809;48.632;11.576;2024-03-06T05:40:21;14.73;;;13.23;;
26034;SDS011;13809;48.632;11.576;2024-03-06T05:45:42;16.93;;;14.00;;
26034;SDS011;13809;48.632;11.576;2024-03-06T05:51:04;15.47;;;13.87;;
26034;SDS011;13809;48.632;11.576;2024-03-06T05:56:27;15.03;;;13.23;;
26034;SDS011;13809;48.632;11.576;2024-03-06T06:01:48;15.37;;;13.73;;
26034;SDS011;13809;48.632;11.576;2024-03-06T06:06:51;16.07;;;13.70;;
26034;SDS011;13809;48.632;11.576;2024-03-06T06:11:56;17.30;;;14.50;;
26034;SDS011;13809;48.632;11.576;2024-03-06T06:16:59;15.03;;;13.43;;
26034;SDS011;13809;48.632;11.576;2024-03-06T06:22:04;18.20;;;14.40;;
26034;SDS011;13809;48.632;11.576;2024-03-06T06:27:09;15.33;;;13.73;;
26034;SDS011;13809;48.632;11.576;2024-03-06T06:32:12;15.10;;;13.50;;
26034;SDS011;13809;48.632;11.576;2024-03-06T06:37:15;14.40;;;12.90;;
26034;SDS011;13809;48.632;11.576;2024-03-06T06:42:22;14.03;;;12.50;;
26034;SDS011;13809;48.632;11.576;2024-03-06T06:47:26;14.37;;;12.70;;
26034;SDS011;13809;48.632;11.576;2024-03-06T06:52:29;13.10;;;11.67;;
26034;SDS011;13809;48.632;11.576;2024-03-06T06:57:36;14.57;;;12.97;;
26034;SDS011;13809;48.632;11.576;2024-03-06T07:02:39;14.40;;;12.17;;
26034;SDS011;13809;48.632;11.576;2024-03-06T07:07:43;13.70;;;12.20;;
26034;SDS011;13809;48.632;11.576;2024-03-06T07:12:47;14.60;;;12.83;;
26034;SDS011;13809;48.632;11.576;2024-03-06T07:17:51;15.63;;;13.40;;
26034;SDS011;13809;48.632;11.576;2024-03-06T07:22:54;16.73;;;14.27;;
26034;SDS011;13809;48.632;11.576;2024-03-06T07:27:58;15.47;;;13.70;;
26034;SDS011;13809;48.632;11.576;2024-03-06T07:33:02;15.73;;;13.70;;
26034;SDS011;13809;48.632;11.576;2024-03-06T07:38:06;18.83;;;15.37;;
26034;SDS011;13809;48.632;11.576;2024-03-06T07:43:11;17.33;;;15.33;;
26034;SDS011;13809;48.632;11.576;2024-03-06T07:48:15;18.13;;;15.30;;
26034;SDS011;13809;48.632;11.576;2024-03-06T07:53:19;18.20;;;15.00;;
26034;SDS011;13809;48.632;11.576;2024-03-06T07:58:23;18.43;;;15.40;;
26034;SDS011;13809;48.632;11.576;2024-03-06T08:03:26;17.90;;;15.30;;
26034;SDS011;13809;48.632;11.576;2024-03-06T08:08:29;18.47;;;15.53;;
26034;SDS011;13809;48.632;11.576;2024-03-06T08:13:35;18.57;;;14.77;;
26034;SDS011;13809;48.632;11.576;2024-03-06T08:18:38;19.97;;;15.30;;
26034;SDS011;13809;48.632;11.576;2024-03-06T08:23:41;20.87;;;15.80;;
26034;SDS011;13809;48.632;11.576;2024-03-06T08:28:47;16.83;;;14.70;;
26034;SDS011;13809;48.632;11.576;2024-03-06T08:33:51;19.70;;;15.83;;
26034;SDS011;13809;48.632;11.576;2024-03-06T08:38:55;20.30;;;15.93;;
26034;SDS011;13809;48.632;11.576;2024-03-06T08:44:00;20.27;;;16.33;;
26034;SDS011;13809;48.632;11.576;2024-03-06T08:49:03;21.13;;;16.13;;
26034;SDS011;13809;48.632;11.576;2024-03-06T08:54:10;19.93;;;16.20;;
26034;SDS011;13809;48.632;11.576;2024-03-06T08:59:16;20.97;;;17.03;;
26034;SDS011;13809;48.632;11.576;2024-03-06T09:04:19;20.37;;;16.57;;
26034;SDS011;13809;48.632;11.576;2024-03-06T09:09:23;19.73;;;16.90;;
26034;SDS011;13809;48.632;11.576;2024-03-06T09:14:27;21.13;;;16.63;;
26034;SDS011;13809;48.632;11.576;2024-03-06T09:19:30;19.03;;;16.33;;
26034;SDS011;13809;48.632;11.576;2024-03-06T09:24:34;23.73;;;16.87;;
26034;SDS011;13809;48.632;11.576;2024-03-06T09:29:40;21.33;;;16.60;;
26034;SDS011;13809;48.632;11.576;2024-03-06T09:34:44;21.43;;;16.57;;
26034;SDS011;13809;48.632;11.576;2024-03-06T09:39:47;19.27;;;16.00;;
26034;SDS011;13809;48.632;11.576;2024-03-06T09:44:52;22.47;;;17.57;;
26034;SDS011;13809;48.632;11.576;2024-03-06T09:49:55;22.83;;;17.73;;
26034;SDS011;13809;48.632;11.576;2024-03-06T09:54:59;20.97;;;16.13;;
26034;SDS011;13809;48.632;11.576;2024-03-06T10:00:06;19.90;;;16.57;;
26034;SDS011;13809;48.632;11.576;2024-03-06T10:05:23;18.97;;;16.40;;
26034;SDS011;13809;48.632;11.576;2024-03-06T10:10:28;18.60;;;15.20;;
26034;SDS011;13809;48.632;11.576;2024-03-06T10:15:33;19.20;;;15.63;;
26034;SDS011;13809;48.632;11.576;2024-03-06T10:20:38;20.77;;;16.47;;
26034;SDS011;13809;48.632;11.576;2024-03-06T10:25:42;19.90;;;16.03;;
26034;SDS011;13809;48.632;11.576;2024-03-06T10:30:48;22.13;;;17.40;;
26034;SDS011;13809;48.632;11.576;2024-03-06T10:35:51;19.27;;;16.73;;
26034;SDS011;13809;48.632;11.576;2024-03-06T10:40:54;18.53;;;15.93;;
26034;SDS011;13809;48.632;11.576;2024-03-06T10:46:00;20.87;;;15.80;;
26034;SDS011;13809;48.632;11.576;2024-03-06T10:51:08;20.90;;;15.60;;
26034;SDS011;13809;48.632;11.576;2024-03-06T10:56:15;19.07;;;16.30;;
26034;SDS011;13809;48.632;11.576;2024-03-06T11:01:22;18.00;;;15.73;;
26034;SDS011;13809;48.632;11.576;2024-03-06T11:06:26;20.20;;;16.13;;
26034;SDS011;13809;48.632;11.576;2024-03-06T11:11:29;18.07;;;15.67;;
26034;SDS011;13809;48.632;11.576;2024-03-06T11:16:55;18.37;;;15.53;;
26034;SDS011;13809;48.632;11.576;2024-03-06T11:21:59;18.43;;;14.90;;
26034;SDS011;13809;48.632;11.576;2024-03-06T11:27:03;17.63;;;15.30;;
26034;SDS011;13809;48.632;11.576;2024-03-06T11:32:10;19.50;;;15.07;;
26034;SDS011;13809;48.632;11.576;2024-03-06T11:37:14;17.53;;;15.00;;
26034;SDS011;13809;48.632;11.576;2024-03-06T11:42:32;18.67;;;15.57;;
26034;SDS011;13809;48.632;11.576;2024-03-06T11:53:01;19.67;;;16.57;;
26034;SDS011;13809;48.632;11.576;2024-03-06T11:58:08;17.27;;;15.37;;
26034;SDS011;13809;48.632;11.576;2024-03-06T12:03:14;19.43;;;15.37;;
26034;SDS011;13809;48.632;11.576;2024-03-06T12:08:17;16.63;;;13.93;;
26034;SDS011;13809;48.632;11.576;2024-03-06T12:13:21;17.23;;;15.20;;
26034;SDS011;13809;48.632;11.576;2024-03-06T12:18:27;20.93;;;16.27;;
26034;SDS011;13809;48.632;11.576;2024-03-06T12:23:31;17.13;;;13.80;;
26034;SDS011;13809;48.632;11.576;2024-03-06T12:28:34;16.47;;;13.70;;
26034;SDS011;13809;48.632;11.576;2024-03-06T12:33:39;17.00;;;14.63;;
26034;SDS011;13809;48.632;11.576;2024-03-06T12:38:43;17.53;;;14.17;;
26034;SDS011;13809;48.632;11.576;2024-03-06T12:43:46;15.87;;;14.17;;
26034;SDS011;13809;48.632;11.576;2024-03-06T12:48:51;16.43;;;14.20;;
26034;SDS011;13809;48.632;11.576;2024-03-06T12:53:55;15.40;;;13.17;;
26034;SDS011;13809;48.632;11.576;2024-03-06T12:58:58;16.40;;;13.37;;
26034;SDS011;13809;48.632;11.576;2024-03-06T13:04:03;15.50;;;12.93;;
26034;SDS011;13809;48.632;11.576;2024-03-06T13:09:09;14.13;;;12.63;;
26034;SDS011;13809;48.632;11.576;2024-03-06T13:14:12;15.07;;;13.27;;
26034;SDS011;13809;48.632;11.576;2024-03-06T13:19:17;16.80;;;13.53;;
26034;SDS011;13809;48.632;11.576;2024-03-06T13:24:20;15.40;;;12.60;;
26034;SDS011;13809;48.632;11.576;2024-03-06T13:29:24;15.60;;;13.53;;
26034;SDS011;13809;48.632;11.576;2024-03-06T13:34:28;16.23;;;14.10;;
26034;SDS011;13809;48.632;11.576;2024-03-06T13:39:32;16.90;;;14.13;;
26034;SDS011;13809;48.632;11.576;2024-03-06T13:44:36;15.70;;;14.00;;
26034;SDS011;13809;48.632;11.576;2024-03-06T13:49:41;16.50;;;14.03;;
26034;SDS011;13809;48.632;11.576;2024-03-06T13:54:45;16.13;;;14.47;;
26034;SDS011;13809;48.632;11.576;2024-03-06T13:59:49;16.70;;;15.00;;
26034;SDS011;13809;48.632;11.576;2024-03-06T14:04:53;17.37;;;15.57;;
26034;SDS011;13809;48.632;11.576;2024-03-06T14:09:57;18.97;;;16.37;;
26034;SDS011;13809;48.632;11.576;2024-03-06T14:15:04;16.77;;;15.03;;
26034;SDS011;13809;48.632;11.576;2024-03-06T14:20:15;17.40;;;15.70;;
26034;SDS011;13809;48.632;11.576;2024-03-06T14:25:19;17.60;;;15.53;;
26034;SDS011;13809;48.632;11.576;2024-03-06T14:30:23;17.90;;;15.53;;
26034;SDS011;13809;48.632;11.576;2024-03-06T14:35:27;17.90;;;16.10;;
26034;SDS011;13809;48.632;11.576;2024-03-06T14:40:30;19.07;;;17.03;;
26034;SDS011;13809;48.632;11.576;2024-03-06T14:45:35;17.33;;;15.47;;
26034;SDS011;13809;48.632;11.576;2024-03-06T14:50:44;17.97;;;15.53;;
26034;SDS011;13809;48.632;11.576;2024-03-06T14:55:48;17.67;;;15.77;;
26034;SDS011;13809;48.632;11.576;2024-03-06T15:00:52;19.70;;;16.10;;
26034;SDS011;13809;48.632;11.576;2024-03-06T15:05:56;18.80;;;15.60;;
26034;SDS011;13809;48.632;11.576;2024-03-06T15:11:00;20.03;;;16.70;;
26034;SDS011;13809;48.632;11.576;2024-03-06T15:16:04;19.10;;;16.57;;
26034;SDS011;13809;48.632;11.576;2024-03-06T15:21:11;18.80;;;16.37;;
26034;SDS011;13809;48.632;11.576;2024-03-06T15:26:14;19.00;;;16.87;;
26034;SDS011;13809;48.632;11.576;2024-03-06T15:31:17;19.53;;;16.90;;
26034;SDS011;13809;48.632;11.576;2024-03-06T15:36:22;19.40;;;16.53;;
26034;SDS011;13809;48.632;11.576;2024-03-06T15:41:25;25.80;;;21.53;;
26034;SDS011;13809;48.632;11.576;2024-03-06T15:46:29;26.23;;;21.27;;
26034;SDS011;13809;48.632;11.576;2024-03-06T15:51:36;36.43;;;26.73;;
26034;SDS011;13809;48.632;11.576;2024-03-06T15:56:39;23.90;;;18.67;;
26034;SDS011;13809;48.632;11.576;2024-03-06T16:01:43;23.17;;;17.23;;
26034;SDS011;13809;48.632;11.576;2024-03-06T16:06:48;20.17;;;17.37;;
26034;SDS011;13809;48.632;11.576;2024-03-06T16:11:51;19.17;;;16.67;;
26034;SDS011;13809;48.632;11.576;2024-03-06T16:16:54;19.53;;;16.97;;
26034;SDS011;13809;48.632;11.576;2024-03-06T16:22:01;19.07;;;17.00;;
26034;SDS011;13809;48.632;11.576;2024-03-06T16:27:04;19.47;;;16.53;;
26034;SDS011;13809;48.632;11.576;2024-03-06T16:32:08;19.30;;;17.30;;
26034;SDS011;13809;48.632;11.576;2024-03-06T16:37:12;21.97;;;18.13;;
26034;SDS011;13809;48.632;11.576;2024-03-06T16:42:16;21.27;;;18.93;;
26034;SDS011;13809;48.632;11.576;2024-03-06T16:47:19;20.77;;;17.47;;
26034;SDS011;13809;48.632;11.576;2024-03-06T16:52:24;20.27;;;17.47;;
26034;SDS011;13809;48.632;11.576;2024-03-06T16:57:27;19.07;;;16.53;;
26034;SDS011;13809;48.632;11.576;2024-03-06T17:02:30;20.43;;;18.13;;
26034;SDS011;13809;48.632;11.576;2024-03-06T17:07:35;20.00;;;17.33;;
26034;SDS011;13809;48.632;11.576;2024-03-06T17:12:39;20.67;;;18.27;;
26034;SDS011;13809;48.632;11.576;2024-03-06T17:17:42;20.03;;;17.40;;
26034;SDS011;13809;48.632;11.576;2024-03-06T17:22:48;20.70;;;18.37;;
26034;SDS011;13809;48.632;11.576;2024-03-06T17:27:51;19.27;;;17.20;;
26034;SDS011;13809;48.632;11.576;2024-03-06T17:32:54;19.40;;;16.67;;
26034;SDS011;13809;48.632;11.576;2024-03-06T17:37:59;19.57;;;16.77;;
26034;SDS011;13809;48.632;11.576;2024-03-06T17:43:02;18.03;;;15.40;;
26034;SDS011;13809;48.632;11.576;2024-03-06T17:48:06;20.03;;;16.50;;
26034;SDS011;13809;48.632;11.576;2024-03-06T17:53:11;19.93;;;17.83;;
26034;SDS011;13809;48.632;11.576;2024-03-06T17:58:14;19.73;;;17.43;;
26034;SDS011;13809;48.632;11.576;2024-03-06T18:03:17;21.50;;;16.83;;
26034;SDS011;13809;48.632;11.576;2024-03-06T18:08:27;27.77;;;22.70;;
26034;SDS011;13809;48.632;11.576;2024-03-06T18:13:30;21.53;;;18.10;;
26034;SDS011;13809;48.632;11.576;2024-03-06T18:18:33;19.40;;;16.47;;
26034;SDS011;13809;48.632;11.576;2024-03-06T18:23:38;18.13;;;16.23;;
26034;SDS011;13809;48.632;11.576;2024-03-06T18:28:42;20.70;;;18.50;;
26034;SDS011;13809;48.632;11.576;2024-03-06T18:33:45;19.80;;;17.67;;
26034;SDS011;13809;48.632;11.576;2024-03-06T18:38:50;25.10;;;21.87;;
26034;SDS011;13809;48.632;11.576;2024-03-06T18:43:53;19.53;;;16.93;;
26034;SDS011;13809;48.632;11.576;2024-03-06T18:48:56;18.93;;;16.90;;
26034;SDS011;13809;48.632;11.576;2024-03-06T18:54:02;19.30;;;17.30;;
26034;SDS011;13809;48.632;11.576;2024-03-06T18:59:06;17.83;;;15.83;;
26034;SDS011;13809;48.632;11.576;2024-03-06T19:04:09;18.83;;;16.83;;
26034;SDS011;13809;48.632;11.576;2024-03-06T19:09:14;18.53;;;16.67;;
26034;SDS011;13809;48.632;11.576;2024-03-06T19:14:17;17.57;;;15.30;;
26034;SDS011;13809;48.632;11.576;2024-03-06T19:19:21;19.17;;;17.10;;
26034;SDS011;13809;48.632;11.576;2024-03-06T19:24:26;19.17;;;17.07;;
26034;SDS011;13809;48.632;11.576;2024-03-06T19:29:30;18.07;;;16.20;;
26034;SDS011;13809;48.632;11.576;2024-03-06T19:34:34;19.07;;;16.97;;
26034;SDS011;13809;48.632;11.576;2024-03-06T19:39:39;18.43;;;16.53;;
26034;SDS011;13809;48.632;11.576;2024-03-06T19:44:42;19.70;;;17.63;;
26034;SDS011;13809;48.632;11.576;2024-03-06T19:49:46;19.03;;;17.00;;
26034;SDS011;13809;48.632;11.576;2024-03-06T19:54:51;18.67;;;16.77;;
26034;SDS011;13809;48.632;11.576;2024-03-06T19:59:54;20.47;;;18.27;;
26034;SDS011;13809;48.632;11.576;2024-03-06T20:05:02;23.70;;;21.20;;
26034;SDS011;13809;48.632;11.576;2024-03-06T20:10:08;17.10;;;15.40;;
26034;SDS011;13809;48.632;11.576;2024-03-06T20:15:12;17.43;;;15.63;;
26034;SDS011;13809;48.632;11.576;2024-03-06T20:20:15;19.10;;;17.10;;
26034;SDS011;13809;48.632;11.576;2024-03-06T20:25:20;19.70;;;17.67;;
26034;SDS011;13809;48.632;11.576;2024-03-06T20:30:23;19.17;;;17.10;;
26034;SDS011;13809;48.632;11.576;2024-03-06T20:35:26;21.27;;;18.97;;
26034;SDS011;13809;48.632;11.576;2024-03-06T20:40:31;20.03;;;18.03;;
26034;SDS011;13809;48.632;11.576;2024-03-06T20:45:34;16.63;;;14.97;;
26034;SDS011;13809;48.632;11.576;2024-03-06T20:50:40;18.77;;;16.73;;
26034;SDS011;13809;48.632;11.576;2024-03-06T20:55:44;18.33;;;16.40;;
26034;SDS011;13809;48.632;11.576;2024-03-06T21:00:48;17.83;;;15.93;;
26034;SDS011;13809;48.632;11.576;2024-03-06T21:05:53;16.37;;;14.67;;
26034;SDS011;13809;48.632;11.576;2024-03-06T21:10:58;15.30;;;13.70;;
26034;SDS011;13809;48.632;11.576;2024-03-06T21:16:02;12.30;;;11.00;;
26034;SDS011;13809;48.632;11.576;2024-03-06T21:21:06;11.97;;;10.77;;
26034;SDS011;13809;48.632;11.576;2024-03-06T21:26:10;15.57;;;14.03;;
26034;SDS011;13809;48.632;11.576;2024-03-06T21:31:14;14.07;;;12.67;;
26034;SDS011;13809;48.632;11.576;2024-03-06T21:36:17;13.70;;;12.30;;
26034;SDS011;13809;48.632;11.576;2024-03-06T21:41:21;14.80;;;13.30;;
26034;SDS011;13809;48.632;11.576;2024-03-06T21:46:26;14.47;;;12.97;;
26034;SDS011;13809;48.632;11.576;2024-03-06T21:51:29;15.03;;;13.53;;
26034;SDS011;13809;48.632;11.576;2024-03-06T21:56:34;12.40;;;11.20;;
26034;SDS011;13809;48.632;11.576;2024-03-06T22:01:37;14.53;;;13.13;;
26034;SDS011;13809;48.632;11.576;2024-03-06T22:06:41;13.17;;;11.87;;
26034;SDS011;13809;48.632;11.576;2024-03-06T22:11:46;14.43;;;12.93;;
26034;SDS011;13809;48.632;11.576;2024-03-06T22:16:49;12.93;;;11.63;;
26034;SDS011;13809;48.632;11.576;2024-03-06T22:21:52;11.00;;;10.00;;
26034;SDS011;13809;48.632;11.576;2024-03-06T22:26:57;8.83;;;8.03;;
26034;SDS011;13809;48.632;11.576;2024-03-06T22:32:01;7.57;;;6.93;;
26034;SDS011;13809;48.632;11.576;2024-03-06T22:37:04;7.50;;;6.80;;
26034;SDS011;13809;48.632;11.576;2024-03-06T22:42:10;7.60;;;6.93;;
26034;SDS011;13809;48.632;11.576;2024-03-06T22:47:13;6.77;;;6.27;;
26034;SDS011;13809;48.632;11.576;2024-03-06T22:52:16;6.63;;;6.13;;
26034;SDS011;13809;48.632;11.576;2024-03-06T22:57:21;5.23;;;4.83;;
26034;SDS011;13809;48.632;11.576;2024-03-06T23:02:24;9.13;;;8.23;;
26034;SDS011;13809;48.632;11.576;2024-03-06T23:07:28;7.73;;;7.10;;
26034;SDS011;13809;48.632;11.576;2024-03-06T23:12:32;6.67;;;6.17;;
26034;SDS011;13809;48.632;11.576;2024-03-06T23:17:36;6.67;;;6.17;;
26034;SDS011;13809;48.632;11.576;2024-03-06T23:22:40;7.50;;;6.90;;
26034;SDS011;13809;48.632;11.576;2024-03-06T23:27:45;48.03;;;8.17;;
26034;SDS011;13809;48.632;11.576;2024-03-06T23:32:49;26.17;;;8.80;;
26034;SDS011;13809;48.632;11.576;2024-03-06T23:37:53;15.37;;;7.97;;
26034;SDS011;13809;48.632;11.576;2024-03-06T23:42:57;29.67;;;7.70;;
26034;SDS011;13809;48.632;11.576;2024-03-06T23:48:00;8.93;;;8.23;;
26034;SDS011;13809;48.632;11.576;2024-03-06T23:53:04;8.27;;;7.60;;
26034;SDS011;13809;48.632;11.576;2024-03-06T23:58:08;8.90;;;8.20;;
